createdAt,value
2022-10-06T00:01:09.775Z,102028.69
2022-10-06T00:03:38.699Z,102031.41
2022-10-06T00:06:07.723Z,102038.53
2022-10-06T00:08:38.344Z,102048.28
2022-10-06T00:11:08.719Z,102049.25
2022-10-06T00:13:36.828Z,102064.28
2022-10-06T00:16:17.217Z,102060.78
2022-10-06T00:18:45.639Z,102063.50
2022-10-06T00:21:14.183Z,102074.16
2022-10-06T00:23:42.318Z,102081.25
2022-10-06T00:26:17.020Z,102083.09
2022-10-06T00:28:47.925Z,102084.91
2022-10-06T00:31:17.715Z,102094.72
2022-10-06T00:33:46.518Z,102087.69
2022-10-06T00:36:14.687Z,102095.72
2022-10-06T00:38:42.324Z,102105.47
2022-10-06T00:41:15.783Z,102099.38
2022-10-06T00:43:47.912Z,102114.44
2022-10-06T00:46:45.316Z,102125.06
2022-10-06T00:49:23.581Z,102117.22
2022-10-06T00:51:57.809Z,102121.69
2022-10-06T00:54:25.766Z,102129.63
2022-10-06T00:56:53.123Z,102126.16
2022-10-06T00:59:20.684Z,102134.16
2022-10-06T01:02:00.664Z,102138.59
2022-10-06T01:04:33.627Z,102136.00
2022-10-06T01:07:04.158Z,102137.78
2022-10-06T01:09:31.741Z,102145.75
2022-10-06T01:12:04.185Z,102151.03
2022-10-06T01:14:33.013Z,102151.09
2022-10-06T01:17:11.604Z,102154.63
2022-10-06T01:19:53.782Z,102166.97
2022-10-06T01:22:32.873Z,102174.94
2022-10-06T01:25:01.233Z,102175.84
2022-10-06T01:27:32.980Z,102182.91
2022-10-06T01:30:01.640Z,102184.72
2022-10-06T01:32:36.162Z,102189.13
2022-10-06T01:35:08.068Z,102199.72
2022-10-06T01:37:35.780Z,102199.78
2022-10-06T01:40:04.936Z,102198.88
2022-10-06T01:42:33.526Z,102207.72
2022-10-06T01:45:04.272Z,102209.50
2022-10-06T01:47:32.459Z,102205.09
2022-10-06T01:50:00.158Z,102207.75
2022-10-06T01:52:29.494Z,102213.03
2022-10-06T01:54:56.868Z,102216.59
2022-10-06T01:57:24.634Z,102221.91
2022-10-06T01:59:55.003Z,102223.69
2022-10-06T02:02:24.036Z,102215.88
2022-10-06T02:04:51.403Z,102218.53
2022-10-06T02:07:19.481Z,102221.22
2022-10-06T02:09:47.398Z,102228.28
2022-10-06T02:12:15.883Z,102234.47
2022-10-06T02:14:43.268Z,102244.19
2022-10-06T02:17:10.644Z,102238.03
2022-10-06T02:19:38.284Z,102238.97
2022-10-06T02:22:05.638Z,102241.63
2022-10-06T02:24:33.427Z,102243.41
2022-10-06T02:27:00.976Z,102260.19
2022-10-06T02:29:28.374Z,102261.97
2022-10-06T02:31:56.716Z,102267.31
2022-10-06T02:34:24.733Z,102266.47
2022-10-06T02:36:53.981Z,102271.75
2022-10-06T02:39:21.464Z,102273.56
2022-10-06T02:41:48.856Z,102270.91
2022-10-06T02:44:16.193Z,102279.72
2022-10-06T02:46:45.419Z,102278.84
2022-10-06T02:49:13.594Z,102290.31
2022-10-06T02:51:40.961Z,102292.09
2022-10-06T02:54:08.681Z,102301.81
2022-10-06T02:56:37.822Z,102293.91
2022-10-06T02:59:05.188Z,102297.47
2022-10-06T03:01:35.171Z,102309.81
2022-10-06T03:04:12.077Z,102316.88
2022-10-06T03:06:42.056Z,102325.72
2022-10-06T03:09:38.613Z,102328.38
2022-10-06T03:12:05.977Z,102325.78
2022-10-06T03:14:38.158Z,102328.44
2022-10-06T03:17:09.869Z,102337.28
2022-10-06T03:19:41.019Z,102345.19
2022-10-06T03:22:10.540Z,102346.13
2022-10-06T03:24:44.025Z,102346.13
2022-10-06T03:27:11.389Z,102339.97
2022-10-06T03:29:39.002Z,102352.31
2022-10-06T03:32:06.498Z,102362.03
2022-10-06T03:34:34.841Z,102356.75
2022-10-06T03:37:05.088Z,102357.66
2022-10-06T03:39:34.151Z,102362.94
2022-10-06T03:42:02.410Z,102374.44
2022-10-06T03:44:32.218Z,102378.84
2022-10-06T03:46:59.732Z,102386.81
2022-10-06T03:49:27.219Z,102378.03
2022-10-06T03:51:54.859Z,102386.00
2022-10-06T03:54:26.875Z,102386.88
2022-10-06T03:56:54.438Z,102383.38
2022-10-06T03:59:22.112Z,102387.84
2022-10-06T04:01:52.829Z,102401.03
2022-10-06T04:04:25.448Z,102408.97
2022-10-06T04:06:58.640Z,102417.75
2022-10-06T04:09:26.788Z,102418.66
2022-10-06T04:11:54.209Z,102432.72
2022-10-06T04:14:21.764Z,102423.97
2022-10-06T04:16:50.973Z,102431.00
2022-10-06T04:19:25.588Z,102431.91
2022-10-06T04:21:56.014Z,102445.09
2022-10-06T04:24:25.364Z,102441.59
2022-10-06T04:26:53.394Z,102450.41
2022-10-06T04:29:22.248Z,102454.81
2022-10-06T04:31:54.488Z,102450.47
2022-10-06T04:34:28.083Z,102451.38
2022-10-06T04:36:55.669Z,102452.25
2022-10-06T04:39:23.203Z,102454.91
2022-10-06T04:41:50.599Z,102455.81
2022-10-06T04:44:28.661Z,102473.38
2022-10-06T04:47:00.447Z,102467.25
2022-10-06T04:49:28.078Z,102470.75
2022-10-06T04:51:57.230Z,102476.00
2022-10-06T04:54:26.433Z,102476.06
2022-10-06T04:56:58.097Z,102471.69
2022-10-06T04:59:46.799Z,102485.72
2022-10-06T05:02:16.974Z,102483.13
2022-10-06T05:04:45.408Z,102485.75
2022-10-06T05:07:14.322Z,102491.00
2022-10-06T05:09:42.433Z,102497.19
2022-10-06T05:12:12.601Z,102503.34
2022-10-06T05:14:40.864Z,102507.75
2022-10-06T05:17:08.424Z,102509.50
2022-10-06T05:19:37.525Z,102520.94
2022-10-06T05:22:05.321Z,102524.44
2022-10-06T05:24:33.595Z,102535.88
2022-10-06T05:27:03.750Z,102535.00
2022-10-06T05:29:33.989Z,102539.41
2022-10-06T05:32:02.882Z,102541.16
2022-10-06T05:34:30.819Z,102543.78
2022-10-06T05:36:58.206Z,102547.31
2022-10-06T05:39:25.613Z,102542.94
2022-10-06T05:41:56.937Z,102540.28
2022-10-06T05:44:25.513Z,102547.31
2022-10-06T05:46:53.820Z,102556.97
2022-10-06T05:49:21.261Z,102565.78
2022-10-06T05:51:53.711Z,102570.16
2022-10-06T05:54:25.560Z,102569.28
2022-10-06T05:56:54.085Z,102578.94
2022-10-06T05:59:22.393Z,102579.81
2022-10-06T06:01:50.320Z,102586.81
2022-10-06T06:04:32.289Z,102595.63
2022-10-06T06:07:01.445Z,102595.63
2022-10-06T06:09:29.017Z,102593.88
2022-10-06T06:12:01.182Z,102602.63
2022-10-06T06:15:07.301Z,102605.28
2022-10-06T06:17:52.317Z,102600.00
2022-10-06T06:20:19.660Z,102612.28
2022-10-06T06:22:52.422Z,102613.16
2022-10-06T06:25:21.578Z,102622.81
2022-10-06T06:27:49.075Z,102628.09
2022-10-06T06:30:16.830Z,102624.56
2022-10-06T06:32:44.510Z,102628.97
2022-10-06T06:35:12.035Z,102630.72
2022-10-06T06:37:39.421Z,102627.19
2022-10-06T06:40:07.534Z,102636.84
2022-10-06T06:42:38.222Z,102637.72
2022-10-06T06:45:25.532Z,102653.50
2022-10-06T06:48:02.348Z,102645.56
2022-10-06T06:50:31.646Z,102655.22
2022-10-06T06:53:02.497Z,102651.69
2022-10-06T06:55:31.146Z,102659.59
2022-10-06T06:57:58.517Z,102657.78
2022-10-06T07:00:25.929Z,102663.06
2022-10-06T07:03:00.641Z,102662.16
2022-10-06T07:05:30.556Z,102670.94
2022-10-06T07:07:57.962Z,102664.78
2022-10-06T07:10:27.921Z,102677.94
2022-10-06T07:12:55.550Z,102672.63
2022-10-06T07:15:41.508Z,102680.56
2022-10-06T07:18:28.849Z,102681.44
2022-10-06T07:21:14.988Z,102684.91
2022-10-06T07:24:01.136Z,102695.44
2022-10-06T07:26:32.107Z,102697.16
2022-10-06T07:29:00.118Z,102706.81
2022-10-06T07:31:33.570Z,102706.78
2022-10-06T07:34:04.017Z,102722.63
2022-10-06T07:36:32.581Z,102723.47
2022-10-06T07:39:00.185Z,102730.47
2022-10-06T07:41:30.687Z,102734.84
2022-10-06T07:44:04.592Z,102743.63
2022-10-06T07:46:34.905Z,102748.00
2022-10-06T07:49:17.271Z,102748.88
2022-10-06T07:51:45.196Z,102746.22
2022-10-06T07:54:12.581Z,102760.28
2022-10-06T07:56:53.524Z,102762.88
2022-10-06T07:59:21.640Z,102764.63
2022-10-06T08:01:51.183Z,102765.47
2022-10-06T08:04:18.634Z,102756.66
2022-10-06T08:06:47.576Z,102768.06
2022-10-06T08:09:14.985Z,102765.38
2022-10-06T08:11:43.830Z,102775.03
2022-10-06T08:14:11.213Z,102776.75
2022-10-06T08:16:38.673Z,102780.25
2022-10-06T08:19:06.057Z,102775.81
2022-10-06T08:21:38.057Z,102773.13
2022-10-06T08:24:05.857Z,102786.28
2022-10-06T08:26:34.353Z,102787.97
2022-10-06T08:29:03.239Z,102788.78
2022-10-06T08:31:31.873Z,102793.06
2022-10-06T08:33:59.534Z,102793.88
2022-10-06T08:36:31.512Z,102792.03
2022-10-06T08:39:01.048Z,102802.50
2022-10-06T08:41:43.013Z,102807.72
2022-10-06T08:44:18.141Z,102812.03
2022-10-06T08:47:01.561Z,102818.13
2022-10-06T08:49:39.941Z,102821.53
2022-10-06T08:52:29.260Z,102833.84
2022-10-06T08:55:26.195Z,102835.56
2022-10-06T08:58:14.198Z,102829.25
2022-10-06T09:00:41.722Z,102829.13
2022-10-06T09:03:23.619Z,102836.06
2022-10-06T09:05:57.028Z,102844.81
2022-10-06T09:08:58.476Z,102845.66
2022-10-06T09:11:46.802Z,102845.59
2022-10-06T09:14:29.598Z,102848.16
2022-10-06T09:17:04.422Z,102856.00
2022-10-06T09:19:43.299Z,102854.97
2022-10-06T09:22:24.873Z,102864.50
2022-10-06T09:24:59.608Z,102861.75
2022-10-06T09:27:36.604Z,102869.59
2022-10-06T09:30:06.142Z,102873.03
2022-10-06T09:32:34.768Z,102869.38
2022-10-06T09:35:18.045Z,102871.03
2022-10-06T09:38:08.519Z,102870.91
2022-10-06T09:40:59.181Z,102873.38
2022-10-06T09:43:31.378Z,102871.56
2022-10-06T09:46:28.985Z,102877.63
2022-10-06T09:49:17.333Z,102881.13
2022-10-06T09:52:13.369Z,102873.19
2022-10-06T09:54:43.629Z,102871.31
2022-10-06T09:57:24.921Z,102874.75
2022-10-06T09:59:52.791Z,102871.16
2022-10-06T10:02:36.521Z,102876.25
2022-10-06T10:05:20.298Z,102872.63
2022-10-06T10:08:06.152Z,102878.66
2022-10-06T10:10:35.860Z,102866.09
2022-10-06T10:13:26.793Z,102876.53
2022-10-06T10:16:01.803Z,102879.03
2022-10-06T10:18:31.882Z,102879.81
2022-10-06T10:21:06.066Z,102882.28
2022-10-06T10:23:43.169Z,102882.91
2022-10-06T10:26:44.773Z,102884.56
2022-10-06T10:29:40.161Z,102881.75
2022-10-06T10:32:24.759Z,102883.38
2022-10-06T10:34:59.309Z,102886.91
2022-10-06T10:37:47.221Z,102885.16
2022-10-06T10:40:35.119Z,102880.63
2022-10-06T10:43:51.766Z,102879.69
2022-10-06T10:46:30.942Z,102889.44
2022-10-06T10:49:11.952Z,102894.69
2022-10-06T10:51:56.561Z,102881.28
2022-10-06T10:54:46.244Z,102882.84
2022-10-06T10:57:18.018Z,102888.88
2022-10-06T11:00:04.078Z,102885.38
2022-10-06T11:02:33.224Z,102890.88
2022-10-06T11:05:34.811Z,102889.22
2022-10-06T11:08:55.118Z,102894.59
2022-10-06T11:12:03.524Z,102890.97
2022-10-06T11:15:05.762Z,102894.31
2022-10-06T11:17:46.845Z,102890.91
2022-10-06T11:20:38.684Z,102892.66
2022-10-06T11:23:28.699Z,102897.06
2022-10-06T11:26:11.129Z,102895.94
2022-10-06T11:28:53.997Z,102898.34
2022-10-06T11:31:42.601Z,102898.16
2022-10-06T11:34:10.521Z,102905.16
2022-10-06T11:37:13.513Z,102907.69
2022-10-06T11:40:17.688Z,102894.13
2022-10-06T11:43:00.863Z,102890.25
2022-10-06T11:45:54.733Z,102902.41
2022-10-06T11:48:30.893Z,102899.50
2022-10-06T11:51:17.096Z,102901.97
2022-10-06T11:53:45.411Z,102900.97
2022-10-06T11:56:18.715Z,102894.75
2022-10-06T11:58:52.028Z,102893.84
2022-10-06T12:01:31.223Z,102887.47
2022-10-06T12:04:07.590Z,102890.00
2022-10-06T12:06:54.167Z,102886.34
2022-10-06T12:09:31.071Z,102882.72
2022-10-06T12:12:26.653Z,102881.81
2022-10-06T12:18:22.736Z,102879.91
2022-10-06T12:21:19.402Z,102878.06
2022-10-06T12:24:05.276Z,102876.25
2022-10-06T12:27:06.584Z,102879.72
2022-10-06T12:29:48.874Z,102878.06
2022-10-06T12:32:37.498Z,102864.78
2022-10-06T12:35:07.625Z,102869.06
2022-10-06T12:37:43.963Z,102872.47
2022-10-06T12:40:43.625Z,102872.31
2022-10-06T12:43:14.287Z,102877.47
2022-10-06T12:45:57.780Z,102869.31
2022-10-06T12:49:07.445Z,102878.16
2022-10-06T12:51:40.232Z,102867.84
2022-10-06T12:54:19.386Z,102871.56
2022-10-06T12:57:13.241Z,102863.88
2022-10-06T12:59:41.156Z,102859.44
2022-10-06T13:02:17.546Z,102858.41
2022-10-06T13:04:59.183Z,102863.53
2022-10-06T13:07:30.925Z,102860.94
2022-10-06T13:10:13.685Z,102846.72
2022-10-06T13:12:52.036Z,102856.31
2022-10-06T13:15:35.533Z,102862.22
2022-10-06T13:18:16.945Z,102856.69
2022-10-06T13:20:50.392Z,102852.97
2022-10-06T13:23:33.831Z,102856.34
2022-10-06T13:26:04.744Z,102854.47
2022-10-06T13:28:43.966Z,102851.81
2022-10-06T13:31:20.457Z,102859.84
2022-10-06T13:34:03.024Z,102851.81
2022-10-06T13:36:38.712Z,102844.66
2022-10-06T13:39:16.017Z,102849.03
2022-10-06T13:41:49.347Z,102849.03
2022-10-06T13:44:19.685Z,102848.00
2022-10-06T13:46:52.991Z,102850.47
2022-10-06T13:49:31.175Z,102847.72
2022-10-06T13:52:15.446Z,102850.63
2022-10-06T13:54:51.657Z,102855.97
2022-10-06T13:57:42.678Z,102856.97
2022-10-06T14:00:23.081Z,102849.91
2022-10-06T14:03:28.309Z,102857.03
2022-10-06T14:06:22.123Z,102849.19
2022-10-06T14:08:57.805Z,102860.91
2022-10-06T14:11:29.678Z,102856.34
2022-10-06T14:14:06.008Z,102855.28
2022-10-06T14:16:33.482Z,102854.16
2022-10-06T14:19:04.808Z,102859.41
2022-10-06T14:21:34.117Z,102854.91
2022-10-06T14:24:07.561Z,102846.81
2022-10-06T14:26:37.449Z,102851.19
2022-10-06T14:29:04.859Z,102849.22
2022-10-06T14:31:34.037Z,102855.44
2022-10-06T14:34:03.165Z,102853.66
2022-10-06T14:36:37.086Z,102858.09
2022-10-06T14:39:07.275Z,102859.03
2022-10-06T14:41:34.748Z,102850.22
2022-10-06T14:44:12.359Z,102850.25
2022-10-06T14:46:42.533Z,102851.13
2022-10-06T14:49:15.869Z,102853.75
2022-10-06T14:51:45.020Z,102852.75
2022-10-06T14:54:15.473Z,102848.22
2022-10-06T14:56:42.935Z,102849.78
2022-10-06T14:59:16.725Z,102855.94
2022-10-06T15:01:45.659Z,102847.03
2022-10-06T15:04:20.145Z,102838.22
2022-10-06T15:07:06.470Z,102853.38
2022-10-06T15:09:35.686Z,102848.94
2022-10-06T15:12:03.865Z,102854.22
2022-10-06T15:14:31.901Z,102842.72
2022-10-06T15:17:00.081Z,102831.31
2022-10-06T15:19:27.598Z,102836.72
2022-10-06T15:21:55.132Z,102834.09
2022-10-06T15:24:22.537Z,102836.06
2022-10-06T15:27:08.417Z,102839.69
2022-10-06T15:29:36.020Z,102836.31
2022-10-06T15:32:06.074Z,102825.78
2022-10-06T15:34:34.590Z,102825.94
2022-10-06T15:37:02.373Z,102825.25
2022-10-06T15:39:34.493Z,102814.88
2022-10-06T15:42:02.149Z,102820.31
2022-10-06T15:44:34.616Z,102811.47
2022-10-06T15:47:05.555Z,102815.09
2022-10-06T15:49:37.962Z,102816.22
2022-10-06T15:52:06.485Z,102820.03
2022-10-06T15:54:37.594Z,102818.59
2022-10-06T15:57:14.029Z,102824.22
2022-10-06T15:59:44.503Z,102821.84
2022-10-06T16:02:17.743Z,102830.97
2022-10-06T16:05:04.320Z,102828.66
2022-10-06T16:07:33.859Z,102821.97
2022-10-06T16:10:01.314Z,102823.97
2022-10-06T16:12:28.816Z,102826.91
2022-10-06T16:14:56.147Z,102820.94
2022-10-06T16:17:23.820Z,102825.66
2022-10-06T16:19:51.145Z,102826.72
2022-10-06T16:22:19.225Z,102819.94
2022-10-06T16:24:46.795Z,102817.53
2022-10-06T16:27:15.431Z,102823.13
2022-10-06T16:29:42.932Z,102837.47
2022-10-06T16:32:10.694Z,102819.94
2022-10-06T16:34:38.015Z,102830.72
2022-10-06T16:37:05.556Z,102827.31
2022-10-06T16:39:33.586Z,102829.22
2022-10-06T16:42:00.966Z,102834.72
2022-10-06T16:44:28.302Z,102832.19
2022-10-06T16:46:55.788Z,102828.81
2022-10-06T16:49:24.377Z,102827.16
2022-10-06T16:51:51.725Z,102825.56
2022-10-06T16:54:19.127Z,102824.81
2022-10-06T16:56:54.755Z,102827.63
2022-10-06T16:59:25.952Z,102828.69
2022-10-06T17:01:53.588Z,102835.00
2022-10-06T17:04:24.175Z,102826.31
2022-10-06T17:06:55.106Z,102833.53
2022-10-06T17:09:26.253Z,102835.47
2022-10-06T17:11:57.334Z,102832.06
2022-10-06T17:14:26.012Z,102831.31
2022-10-06T17:16:56.146Z,102835.88
2022-10-06T17:19:28.441Z,102834.28
2022-10-06T17:21:59.396Z,102828.22
2022-10-06T17:24:29.482Z,102838.06
2022-10-06T17:26:58.040Z,102829.34
2022-10-06T17:29:26.535Z,102833.84
2022-10-06T17:31:58.403Z,102832.19
2022-10-06T17:34:30.669Z,102834.13
2022-10-06T17:37:01.474Z,102828.91
2022-10-06T17:39:28.950Z,102836.06
2022-10-06T17:41:56.687Z,102844.13
2022-10-06T17:44:28.433Z,102835.41
2022-10-06T17:46:59.010Z,102837.22
2022-10-06T17:49:28.540Z,102847.88
2022-10-06T17:51:55.961Z,102842.69
2022-10-06T17:54:26.764Z,102847.22
2022-10-06T17:56:57.878Z,102836.75
2022-10-06T17:59:30.427Z,102828.88
2022-10-06T18:02:02.493Z,102834.28
2022-10-06T18:04:30.339Z,102837.84
2022-10-06T18:06:57.788Z,102835.31
2022-10-06T18:09:25.348Z,102838.88
2022-10-06T18:11:56.378Z,102836.28
2022-10-06T18:14:27.909Z,102831.09
2022-10-06T18:17:01.578Z,102827.59
2022-10-06T18:19:32.675Z,102827.66
2022-10-06T18:22:13.636Z,102824.19
2022-10-06T18:24:41.267Z,102828.63
2022-10-06T18:27:09.241Z,102828.66
2022-10-06T18:29:38.579Z,102836.63
2022-10-06T18:37:42.476Z,102821.75
2022-10-06T18:40:11.034Z,102823.53
2022-10-06T18:42:39.359Z,102815.63
2022-10-06T18:45:27.658Z,102819.19
2022-10-06T18:48:13.648Z,102814.84
2022-10-06T18:50:41.059Z,102823.66
2022-10-06T18:53:12.053Z,102818.41
2022-10-06T18:55:39.429Z,102815.78
2022-10-06T18:58:06.781Z,102809.63
2022-10-06T19:00:34.110Z,102814.06
2022-10-06T19:03:01.467Z,102816.72
2022-10-06T19:05:28.918Z,102810.59
2022-10-06T19:07:56.384Z,102816.78
2022-10-06T19:10:23.748Z,102817.66
2022-10-06T19:12:51.149Z,102821.16
2022-10-06T19:15:21.079Z,102822.91
2022-10-06T19:17:49.898Z,102821.16
2022-10-06T19:20:18.363Z,102826.44
2022-10-06T19:22:47.447Z,102823.81
2022-10-06T19:25:18.701Z,102831.72
2022-10-06T19:27:46.920Z,102826.44
2022-10-06T19:30:14.735Z,102819.44
2022-10-06T19:32:42.285Z,102824.72
2022-10-06T19:35:10.754Z,102829.09
2022-10-06T19:37:39.254Z,102822.06
2022-10-06T19:40:08.614Z,102819.44
2022-10-06T19:42:48.015Z,102827.31
2022-10-06T19:45:17.683Z,102829.09
2022-10-06T19:47:46.099Z,102825.56
2022-10-06T19:50:16.882Z,102829.06
2022-10-06T19:52:45.192Z,102829.91
2022-10-06T19:55:12.558Z,102822.91
2022-10-06T19:57:40.279Z,102819.38
2022-10-06T20:00:11.713Z,102826.38
2022-10-06T20:02:46.445Z,102821.13
2022-10-06T20:05:16.502Z,102819.38
2022-10-06T20:07:47.066Z,102818.47
2022-10-06T20:10:15.064Z,102817.59
2022-10-06T20:12:42.468Z,102818.47
2022-10-06T20:15:10.515Z,102817.56
2022-10-06T20:17:37.982Z,102826.34
2022-10-06T20:20:05.878Z,102824.56
2022-10-06T20:22:33.265Z,102823.66
2022-10-06T20:25:01.925Z,102823.66
2022-10-06T20:27:29.616Z,102824.53
2022-10-06T20:29:57.918Z,102818.38
2022-10-06T20:32:25.443Z,102815.72
2022-10-06T20:34:52.996Z,102816.59
2022-10-06T20:37:20.331Z,102821.88
2022-10-06T20:40:06.089Z,102817.47
2022-10-06T20:42:33.638Z,102814.81
2022-10-06T20:45:00.977Z,102820.09
2022-10-06T20:47:29.688Z,102815.66
2022-10-06T20:49:57.016Z,102817.44
2022-10-06T20:52:24.409Z,102816.56
2022-10-06T20:54:51.981Z,102815.69
2022-10-06T20:57:19.585Z,102812.16
2022-10-06T20:59:47.051Z,102802.53
2022-10-06T21:02:14.529Z,102801.66
2022-10-06T21:07:15.474Z,102799.06
2022-10-06T21:09:43.064Z,102800.81
2022-10-06T21:12:10.434Z,102794.66
2022-10-06T21:14:40.037Z,102798.19
2022-10-06T21:17:07.462Z,102793.81
2022-10-06T21:19:37.605Z,102792.91
2022-10-06T21:22:05.693Z,102787.66
2022-10-06T21:24:33.056Z,102790.31
2022-10-06T21:27:00.508Z,102789.44
2022-10-06T21:29:27.883Z,102789.47
2022-10-06T21:31:55.362Z,102784.19
2022-10-06T21:34:22.816Z,102785.06
2022-10-06T21:36:50.467Z,102785.94
2022-10-06T21:39:17.873Z,102782.44
2022-10-06T21:41:45.244Z,102774.56
2022-10-06T21:44:18.211Z,102778.06
2022-10-06T21:46:52.495Z,102771.91
2022-10-06T21:49:23.378Z,102771.91
2022-10-06T21:51:56.523Z,102771.91
2022-10-06T21:54:24.319Z,102766.66
2022-10-06T21:56:52.457Z,102759.63
2022-10-06T21:59:19.969Z,102754.34
2022-10-06T22:01:50.246Z,102754.38
2022-10-06T22:04:18.468Z,102750.84
2022-10-06T22:06:49.843Z,102745.56
2022-10-06T22:09:22.555Z,102744.66
2022-10-06T22:11:50.076Z,102746.44
2022-10-06T22:14:19.920Z,102743.75
2022-10-06T22:16:47.687Z,102737.59
2022-10-06T22:19:16.367Z,102741.09
2022-10-06T22:21:47.833Z,102739.31
2022-10-06T22:24:19.920Z,102739.31
2022-10-06T22:26:48.785Z,102738.38
2022-10-06T22:29:18.955Z,102732.22
2022-10-06T22:31:47.983Z,102730.47
2022-10-06T22:34:19.197Z,102728.72
2022-10-06T22:36:47.125Z,102733.06
2022-10-06T22:39:14.494Z,102736.53
2022-10-06T22:41:42.081Z,102728.66
2022-10-06T22:44:09.551Z,102733.88
2022-10-06T22:46:38.075Z,102733.91
2022-10-06T22:49:06.185Z,102726.00
2022-10-06T22:51:33.884Z,102722.47
2022-10-06T22:54:01.867Z,102716.38
2022-10-06T22:56:32.509Z,102719.88
2022-10-06T22:59:00.942Z,102714.63
2022-10-06T23:01:29.922Z,102715.50
2022-10-06T23:03:58.307Z,102702.34
2022-10-06T23:06:30.856Z,102704.09
2022-10-06T23:08:58.488Z,102707.63
2022-10-06T23:11:25.894Z,102697.09
2022-10-06T23:13:53.523Z,102694.50
2022-10-06T23:16:21.615Z,102691.88
2022-10-06T23:18:52.173Z,102694.50
2022-10-06T23:21:24.002Z,102692.75
2022-10-06T23:23:55.586Z,102689.25
2022-10-06T23:26:23.919Z,102690.09
2022-10-06T23:28:59.067Z,102685.72
2022-10-06T23:31:28.833Z,102676.97
2022-10-06T23:33:56.338Z,102678.72
2022-10-06T23:36:23.752Z,102680.50
2022-10-06T23:38:51.260Z,102673.50
2022-10-06T23:41:19.531Z,102676.13
2022-10-06T23:43:47.025Z,102675.22
2022-10-06T23:46:14.819Z,102674.38
2022-10-06T23:48:42.615Z,102675.22
2022-10-06T23:51:15.384Z,102670.88
2022-10-06T23:53:43.762Z,102667.38
2022-10-06T23:56:11.275Z,102674.34
2022-10-06T23:58:39.090Z,102667.34
